九州TAF電文


北九州(RJFR)
5/25 8h
TAF RJFR 242305Z 2500/2606 06007KT 9999 FEW030 BECMG 2501/2503
12005KT BECMG 2600/2603 06011KT=

福岡(RJFF)

佐賀(RJFS)
5/25 8h
TAF RJFS 242305Z 2500/2606 02008KT 9999 FEW040 BECMG 2501/2503
23008KT BECMG 2515/2518 03003KT BECMG 2603/2606 21010KT=

大分(RJFO)
5/25 8h
TAF RJFO 242305Z 2500/2606 02010KT 9999 FEW030 BECMG 2508/2510
22004KT BECMG 2600/2603 14015KT=

長崎(RJFU)
5/25 8h
TAF RJFU 242305Z 2500/2606 29007KT 9999 FEW040 BECMG 2512/2515
14004KT BECMG 2603/2606 21012KT=

熊本(RJFT)
5/25 8h
TAF RJFT 242305Z 2500/2606 28006KT 9999 FEW035 BECMG 2512/2515
06004KT BECMG 2600/2603 23007KT=

宮崎(RJFM)
5/25 8h
TAF RJFM 242305Z 2500/2606 06010KT 9999 FEW030 BECMG 2512/2515
29005KT BECMG 2521/2600 10007KT=

鹿児島(RJFK)
5/25 8h
TAF RJFK 242305Z 2500/2606 17006KT 9999 FEW030 SCT045=

那覇(ROAH)

石垣(ROIG)
5/25 10h
TAF AMD ROIG 250141Z 2501/2606 09006KT 9999 FEW008 SCT015
TEMPO 2504/2507 4000 SHRA FEW006 BKN008 FEW020CB
BECMG 2506/2508 17006KT
TEMPO 2512/2521 FEW006 BKN008=
Copyright(c) 2014 International Meteorological & Oceanographic Consultants Co,.Ltd. All Rights Reserved. Design by http://f-tpl.com